Terminal Aerodrome Forecast
Issued by NWS Mt. Holly, NJ

Home | Current Version | Previous Version | Text Only | Print | Product List | Glossary On
Versions: 1 2 3 4 5 6 7 8 9 10 11 12 13 14 15 16 17 18 19 20 21 22 23 24 25 26 27 28 29 30 31 32 33 34 35 36 37 38 39 40 41 42 43 44 45 46 47
000
FTUS41 KPHI 210854 AAB
TAFABE
TAF AMD
KABE 210854Z 2109/2206 VRB03KT 1/4SM -DZ FG OVC002
     FM211400 24005KT 3SM -DZ BR BKN007
     FM211600 23006KT 3SM BR BKN035
     FM211800 24008G16KT P6SM BKN050
     FM212200 30005KT P6SM BKN035 PROB30 2122/2202 -SHRA
     FM220200 35006G16KT P6SM BKN035=

USA.gov is the U.S. government's official web portal to all federal, state and local government web resources and services.